Time;durP1;ratioP1;P1;durP2;ratioP2;P2;SDS_P1;SDS_P2;PMS_P1;PMS_P2;Temp;Humidity;BMP_temperature;BMP_pressure;BME280_temperature;BME280_humidity;BME280_pressure;Samples;Min_cycle;Max_cycle;Signal;HPM_P1;HPM_P2
2020/12/14 00:02:14;;;;;;;5.33;2.97;;;;;;;;;;5090570;28;20179;-60
2020/12/14 00:04:40;;;;;;;4.10;2.57;;;;;;;;;;5084049;28;20255;-62
2020/12/14 00:07:07;;;;;;;5.53;2.30;;;;;;;;;;5096509;28;20632;-60
2020/12/14 00:09:33;;;;;;;4.87;2.30;;;;;;;;;;5107335;28;20210;-60
2020/12/14 00:11:59;;;;;;;4.17;2.57;;;;;;;;;;5098632;28;20187;-60
2020/12/14 00:14:25;;;;;;;9.23;2.83;;;;;;;;;;5107955;28;20206;-60
2020/12/14 00:16:51;;;;;;;5.40;2.50;;;;;;;;;;5094719;28;20171;-60
2020/12/14 00:19:17;;;;;;;5.30;2.30;;;;;;;;;;5079707;28;20258;-60
2020/12/14 00:21:43;;;;;;;2.70;2.17;;;;;;;;;;5075333;28;20171;-61
2020/12/14 00:24:10;;;;;;;2.80;1.90;;;;;;;;;;5090075;28;20180;-60
2020/12/14 00:26:36;;;;;;;5.07;2.43;;;;;;;;;;5092927;28;20631;-59
2020/12/14 00:29:01;;;;;;;3.33;2.33;;;;;;;;;;5096100;28;20176;-59
2020/12/14 00:31:27;;;;;;;3.10;2.13;;;;;;;;;;5092907;28;20222;-60
2020/12/14 00:33:54;;;;;;;7.50;2.83;;;;;;;;;;5107417;27;20214;-62
2020/12/14 00:36:20;;;;;;;3.97;2.00;;;;;;;;;;5074530;28;20196;-60
2020/12/14 00:38:46;;;;;;;6.43;2.67;;;;;;;;;;5107206;28;20175;-59
2020/12/14 00:41:16;;;;;;;2.70;2.30;;;;;;;;;;5104723;28;20542;-60
2020/12/14 00:43:43;;;;;;;5.37;2.23;;;;;;;;;;5112041;28;20171;-59
2020/12/14 00:46:11;;;;;;;5.97;2.50;;;;;;;;;;5101884;28;20188;-61
2020/12/14 00:48:38;;;;;;;4.80;2.47;;;;;;;;;;5120490;27;20652;-60
2020/12/14 00:51:04;;;;;;;3.53;2.20;;;;;;;;;;5102500;27;20176;-60
2020/12/14 00:53:31;;;;;;;4.60;2.20;;;;;;;;;;5104803;28;20183;-60
2020/12/14 00:55:57;;;;;;;5.00;2.10;;;;;;;;;;5102476;28;20231;-60
2020/12/14 00:58:23;;;;;;;2.63;2.10;;;;;;;;;;5102451;28;20186;-59
2020/12/14 01:00:49;;;;;;;4.40;2.87;;;;;;;;;;5096353;28;20198;-60
2020/12/14 01:03:15;;;;;;;6.53;2.23;;;;;;;;;;5110243;27;20566;-60
2020/12/14 01:05:41;;;;;;;2.23;1.70;;;;;;;;;;5123448;27;20179;-60
2020/12/14 01:08:07;;;;;;;4.20;2.17;;;;;;;;;;5089118;28;20266;-60
2020/12/14 01:10:33;;;;;;;5.80;1.83;;;;;;;;;;5110222;28;20187;-60
2020/12/14 01:12:59;;;;;;;4.87;2.17;;;;;;;;;;5091125;28;20179;-59
2020/12/14 01:15:25;;;;;;;4.60;2.00;;;;;;;;;;5107631;28;20540;-60
2020/12/14 01:17:51;;;;;;;3.90;2.10;;;;;;;;;;5100587;28;20182;-59
2020/12/14 01:20:17;;;;;;;5.43;2.23;;;;;;;;;;5094347;28;20187;-60
2020/12/14 01:22:43;;;;;;;3.57;1.83;;;;;;;;;;5097369;28;20549;-60
2020/12/14 01:25:09;;;;;;;4.30;2.37;;;;;;;;;;5105757;28;20573;-62
2020/12/14 01:27:35;;;;;;;3.27;1.73;;;;;;;;;;5097365;27;20179;-60
2020/12/14 01:30:01;;;;;;;4.30;1.93;;;;;;;;;;5111454;28;20175;-60
2020/12/14 01:32:27;;;;;;;2.80;1.87;;;;;;;;;;5095172;28;20200;-59
2020/12/14 01:34:53;;;;;;;3.03;1.90;;;;;;;;;;5092842;28;20205;-61
2020/12/14 01:37:19;;;;;;;3.30;1.63;;;;;;;;;;5107188;28;20544;-60
2020/12/14 01:39:45;;;;;;;3.50;1.93;;;;;;;;;;5113187;28;20175;-60
2020/12/14 01:42:11;;;;;;;3.30;1.87;;;;;;;;;;5107826;28;20245;-59
2020/12/14 01:44:37;;;;;;;2.40;1.87;;;;;;;;;;5094002;28;20230;-60
2020/12/14 01:47:03;;;;;;;3.47;1.77;;;;;;;;;;5105237;28;20179;-59
2020/12/14 01:49:30;;;;;;;3.00;1.97;;;;;;;;;;5109826;28;20175;-60
2020/12/14 01:51:56;;;;;;;3.03;1.87;;;;;;;;;;5092321;28;20175;-60
2020/12/14 01:54:23;;;;;;;3.93;2.20;;;;;;;;;;5075554;28;20180;-59
2020/12/14 01:56:49;;;;;;;3.13;1.80;;;;;;;;;;5104128;28;20176;-60
2020/12/14 01:59:15;;;;;;;4.67;1.90;;;;;;;;;;5110989;28;20258;-60
2020/12/14 02:01:42;;;;;;;3.57;1.80;;;;;;;;;;5088188;28;20733;-60
2020/12/14 02:04:08;;;;;;;4.73;1.33;;;;;;;;;;5083169;28;20298;-60
2020/12/14 02:06:34;;;;;;;1.80;1.47;;;;;;;;;;5092950;28;20468;-60
2020/12/14 02:09:00;;;;;;;1.90;1.70;;;;;;;;;;5090272;28;20189;-60
2020/12/14 02:11:26;;;;;;;2.57;1.47;;;;;;;;;;5110302;28;20179;-60
2020/12/14 02:13:52;;;;;;;3.47;1.90;;;;;;;;;;5096377;28;20186;-60
2020/12/14 02:16:18;;;;;;;3.33;1.80;;;;;;;;;;5101723;27;20196;-60
2020/12/14 02:18:44;;;;;;;9.63;1.80;;;;;;;;;;5076678;28;20179;-61
2020/12/14 02:21:14;;;;;;;2.80;1.77;;;;;;;;;;5106142;28;20219;-62
2020/12/14 02:23:40;;;;;;;3.63;1.80;;;;;;;;;;5105985;28;20206;-60
2020/12/14 02:26:06;;;;;;;2.17;1.90;;;;;;;;;;5107910;28;20182;-59
2020/12/14 02:28:32;;;;;;;3.47;1.70;;;;;;;;;;5103440;28;20538;-60
2020/12/14 02:30:58;;;;;;;2.90;1.97;;;;;;;;;;5091591;28;20207;-60
2020/12/14 02:33:24;;;;;;;2.13;1.33;;;;;;;;;;5104159;28;20630;-60
2020/12/14 02:35:50;;;;;;;4.63;1.70;;;;;;;;;;5108690;28;20207;-60
2020/12/14 02:38:16;;;;;;;3.63;1.80;;;;;;;;;;5101019;28;20178;-60
2020/12/14 02:40:42;;;;;;;3.87;1.67;;;;;;;;;;5097214;28;20199;-60
2020/12/14 02:43:08;;;;;;;2.83;1.50;;;;;;;;;;5100243;28;20225;-60
2020/12/14 02:45:36;;;;;;;4.27;1.73;;;;;;;;;;5104680;28;20182;-60
2020/12/14 02:48:03;;;;;;;5.00;1.70;;;;;;;;;;5091994;28;20179;-60
2020/12/14 02:50:29;;;;;;;5.33;2.00;;;;;;;;;;5109996;28;20182;-60
2020/12/14 02:52:55;;;;;;;2.83;1.70;;;;;;;;;;5085437;28;20646;-61
2020/12/14 02:55:21;;;;;;;2.93;1.90;;;;;;;;;;5091380;28;20229;-60
2020/12/14 02:57:47;;;;;;;3.50;1.60;;;;;;;;;;5098009;28;20564;-60
2020/12/14 03:00:14;;;;;;;2.13;1.40;;;;;;;;;;5107532;28;20217;-60
2020/12/14 03:02:40;;;;;;;5.43;1.70;;;;;;;;;;5100632;27;20179;-60
2020/12/14 03:05:06;;;;;;;3.47;1.43;;;;;;;;;;5110890;28;20229;-62
2020/12/14 03:07:32;;;;;;;3.40;1.57;;;;;;;;;;5086482;28;20186;-61
2020/12/14 03:09:58;;;;;;;3.80;1.70;;;;;;;;;;5129747;27;20182;-60
2020/12/14 03:12:24;;;;;;;1.77;1.23;;;;;;;;;;5102116;27;20233;-62
2020/12/14 03:14:51;;;;;;;4.80;1.83;;;;;;;;;;5086070;28;20199;-60
2020/12/14 03:17:17;;;;;;;4.50;1.60;;;;;;;;;;5107382;28;20171;-60
2020/12/14 03:19:43;;;;;;;4.97;1.40;;;;;;;;;;5107668;28;20203;-60
2020/12/14 03:22:09;;;;;;;3.97;1.37;;;;;;;;;;5090936;28;20611;-63
2020/12/14 03:24:35;;;;;;;5.93;1.63;;;;;;;;;;5109296;28;20256;-61
2020/12/14 03:27:01;;;;;;;5.93;1.80;;;;;;;;;;5090692;28;20211;-61
2020/12/14 03:29:27;;;;;;;1.50;0.90;;;;;;;;;;5110507;28;20664;-61
2020/12/14 03:31:53;;;;;;;2.73;1.40;;;;;;;;;;5105110;28;20225;-62
2020/12/14 03:34:19;;;;;;;3.57;1.80;;;;;;;;;;5107798;28;20232;-60
2020/12/14 03:36:45;;;;;;;3.20;1.43;;;;;;;;;;5089544;28;20183;-60
2020/12/14 03:39:11;;;;;;;2.30;1.70;;;;;;;;;;5080149;28;20171;-60
2020/12/14 03:41:37;;;;;;;3.70;1.80;;;;;;;;;;5090342;28;20194;-60
2020/12/14 03:44:03;;;;;;;3.77;1.63;;;;;;;;;;5073949;28;20599;-59
2020/12/14 03:46:34;;;;;;;2.57;1.30;;;;;;;;;;5093921;28;20525;-60
2020/12/14 03:49:00;;;;;;;2.07;1.67;;;;;;;;;;5107378;28;20190;-60
2020/12/14 03:51:27;;;;;;;3.87;1.70;;;;;;;;;;5095017;28;20237;-60
2020/12/14 03:53:53;;;;;;;1.67;1.37;;;;;;;;;;5078014;28;20210;-59
2020/12/14 03:56:22;;;;;;;4.03;1.90;;;;;;;;;;5094610;28;20527;-60
2020/12/14 03:58:49;;;;;;;2.70;1.67;;;;;;;;;;5103725;28;20176;-60
2020/12/14 04:01:31;;;;;;;1.43;1.30;;;;;;;;;;5095907;27;20994;-59
2020/12/14 04:03:57;;;;;;;2.90;1.73;;;;;;;;;;5115917;27;20222;-60
2020/12/14 04:06:24;;;;;;;4.43;1.80;;;;;;;;;;5088130;28;20187;-59
2020/12/14 04:08:51;;;;;;;3.10;1.83;;;;;;;;;;5109160;28;20187;-60
2020/12/14 04:11:17;;;;;;;3.73;1.67;;;;;;;;;;5110892;28;20185;-60
2020/12/14 04:13:44;;;;;;;3.57;1.50;;;;;;;;;;5079523;28;20179;-60
2020/12/14 04:16:10;;;;;;;2.70;1.33;;;;;;;;;;5097381;28;20217;-61
2020/12/14 04:18:36;;;;;;;3.73;1.73;;;;;;;;;;5076309;28;20199;-60
2020/12/14 04:21:03;;;;;;;5.13;1.50;;;;;;;;;;5094159;28;20168;-60
2020/12/14 04:23:29;;;;;;;2.60;1.50;;;;;;;;;;5095993;28;20175;-60
2020/12/14 04:25:55;;;;;;;8.20;2.20;;;;;;;;;;5094237;28;20275;-61
2020/12/14 04:28:21;;;;;;;1.87;1.27;;;;;;;;;;5104328;28;20263;-60
2020/12/14 04:30:47;;;;;;;1.50;1.30;;;;;;;;;;5087315;28;20200;-62
2020/12/14 04:33:13;;;;;;;4.43;1.80;;;;;;;;;;5104446;27;20517;-60
2020/12/14 04:35:39;;;;;;;2.97;1.70;;;;;;;;;;5095266;28;20256;-60
2020/12/14 04:38:05;;;;;;;3.57;1.57;;;;;;;;;;5103876;28;20191;-60
2020/12/14 04:40:31;;;;;;;1.30;1.20;;;;;;;;;;5093602;28;20198;-60
2020/12/14 04:42:58;;;;;;;2.37;1.50;;;;;;;;;;5081285;28;20176;-60
2020/12/14 04:45:27;;;;;;;4.17;1.70;;;;;;;;;;5077947;28;20325;-60
2020/12/14 04:47:57;;;;;;;2.10;1.57;;;;;;;;;;5094598;28;20634;-60
2020/12/14 04:50:24;;;;;;;1.90;1.60;;;;;;;;;;5096784;28;20536;-59
2020/12/14 04:52:50;;;;;;;2.73;1.27;;;;;;;;;;5098395;28;20171;-60
2020/12/14 04:55:23;;;;;;;2.23;1.60;;;;;;;;;;5108843;28;20203;-60
2020/12/14 04:57:53;;;;;;;3.93;1.67;;;;;;;;;;5080946;28;20175;-60
2020/12/14 05:00:19;;;;;;;3.27;1.20;;;;;;;;;;5092062;28;20168;-61
2020/12/14 05:02:45;;;;;;;3.47;1.30;;;;;;;;;;5077763;28;20183;-60
2020/12/14 05:05:12;;;;;;;4.37;1.40;;;;;;;;;;5093495;28;20224;-61
2020/12/14 05:07:41;;;;;;;2.50;1.70;;;;;;;;;;5102495;28;20179;-60
2020/12/14 05:10:08;;;;;;;3.40;1.70;;;;;;;;;;5080827;28;20179;-61
2020/12/14 05:12:39;;;;;;;2.30;1.63;;;;;;;;;;5079007;28;20172;-60
2020/12/14 05:15:14;;;;;;;5.93;1.60;;;;;;;;;;5094049;28;20203;-60
2020/12/14 05:17:40;;;;;;;4.57;1.53;;;;;;;;;;5082936;28;20168;-60
2020/12/14 05:20:16;;;;;;;3.77;1.93;;;;;;;;;;5077753;27;20178;-60
2020/12/14 05:22:58;;;;;;;1.97;1.70;;;;;;;;;;5099505;28;20171;-61
2020/12/14 05:25:24;;;;;;;3.93;1.87;;;;;;;;;;5109480;28;20214;-60
2020/12/14 05:28:00;;;;;;;6.47;2.10;;;;;;;;;;5084195;28;20182;-60
2020/12/14 05:30:32;;;;;;;4.83;1.53;;;;;;;;;;5106857;28;20209;-60
2020/12/14 05:33:01;;;;;;;4.73;1.53;;;;;;;;;;5104630;28;20210;-60
2020/12/14 05:35:31;;;;;;;4.37;1.57;;;;;;;;;;5092684;28;20207;-60
2020/12/14 05:38:15;;;;;;;4.83;1.60;;;;;;;;;;5092920;28;20191;-61
2020/12/14 05:40:42;;;;;;;2.67;1.30;;;;;;;;;;5111187;28;20179;-60
2020/12/14 05:43:13;;;;;;;1.70;1.33;;;;;;;;;;5104830;28;20180;-60
2020/12/14 05:45:40;;;;;;;2.20;1.20;;;;;;;;;;5095551;28;20615;-60
2020/12/14 05:48:21;;;;;;;2.40;1.33;;;;;;;;;;5082166;28;20399;-60
2020/12/14 05:50:48;;;;;;;3.77;1.47;;;;;;;;;;5100545;28;20183;-59
2020/12/14 05:53:18;;;;;;;4.77;1.20;;;;;;;;;;5101195;28;20182;-60
2020/12/14 05:55:44;;;;;;;3.40;1.37;;;;;;;;;;5111378;28;20222;-60
2020/12/14 05:58:13;;;;;;;1.97;1.40;;;;;;;;;;5109303;28;20171;-60
2020/12/14 06:00:41;;;;;;;2.50;1.40;;;;;;;;;;5100305;28;20178;-60
2020/12/14 06:03:07;;;;;;;1.73;1.30;;;;;;;;;;5108372;28;20175;-60
2020/12/14 06:05:36;;;;;;;3.00;1.87;;;;;;;;;;5083348;28;20527;-60
2020/12/14 06:08:07;;;;;;;1.63;1.40;;;;;;;;;;5098390;28;20648;-62
2020/12/14 06:10:33;;;;;;;1.47;1.33;;;;;;;;;;5096360;28;20214;-60
2020/12/14 06:13:07;;;;;;;4.40;1.60;;;;;;;;;;5107049;28;20175;-61
2020/12/14 06:15:34;;;;;;;1.63;1.30;;;;;;;;;;5107716;28;20225;-61
2020/12/14 06:18:02;;;;;;;5.00;1.30;;;;;;;;;;5097109;28;20175;-60
2020/12/14 06:20:28;;;;;;;2.40;1.27;;;;;;;;;;5097209;28;20175;-62
2020/12/14 06:23:05;;;;;;;3.63;1.40;;;;;;;;;;5110013;28;20201;-60
2020/12/14 06:25:31;;;;;;;2.67;1.53;;;;;;;;;;5101579;28;20665;-60
2020/12/14 06:28:05;;;;;;;3.20;1.13;;;;;;;;;;5102173;28;20183;-60
2020/12/14 06:30:32;;;;;;;2.17;1.27;;;;;;;;;;5102322;28;20227;-60
2020/12/14 06:32:59;;;;;;;2.70;1.40;;;;;;;;;;5104881;28;20183;-60
2020/12/14 06:35:42;;;;;;;1.93;1.30;;;;;;;;;;5093877;28;20207;-60
2020/12/14 06:38:08;;;;;;;2.67;1.20;;;;;;;;;;5098035;27;20680;-60
2020/12/14 06:40:53;;;;;;;2.13;1.43;;;;;;;;;;5075469;28;20180;-60
2020/12/14 06:43:29;;;;;;;1.80;1.30;;;;;;;;;;5102368;28;20203;-60
2020/12/14 06:45:58;;;;;;;2.17;1.27;;;;;;;;;;5100087;28;20171;-60
2020/12/14 06:48:36;;;;;;;1.90;1.50;;;;;;;;;;5099193;28;20179;-60
2020/12/14 06:51:03;;;;;;;1.03;0.93;;;;;;;;;;5095287;28;20171;-60
2020/12/14 06:53:50;;;;;;;3.30;1.43;;;;;;;;;;5091721;28;20191;-60
2020/12/14 06:56:36;;;;;;;1.37;1.27;;;;;;;;;;5096139;27;20705;-60
2020/12/14 06:59:02;;;;;;;3.23;1.37;;;;;;;;;;5080129;28;20183;-59
2020/12/14 07:01:36;;;;;;;2.20;1.30;;;;;;;;;;5072470;28;20179;-62
2020/12/14 07:04:25;;;;;;;2.40;1.67;;;;;;;;;;5082246;28;20257;-59
2020/12/14 07:06:51;;;;;;;2.07;1.37;;;;;;;;;;5071883;28;20184;-60
2020/12/14 07:09:31;;;;;;;2.03;1.23;;;;;;;;;;5105709;28;20167;-59
2020/12/14 07:12:09;;;;;;;2.67;1.40;;;;;;;;;;5107474;28;20214;-60
2020/12/14 07:14:44;;;;;;;2.73;1.30;;;;;;;;;;5101032;27;20579;-60
2020/12/14 07:17:18;;;;;;;6.60;1.70;;;;;;;;;;5099140;27;20214;-60
2020/12/14 07:19:45;;;;;;;2.73;1.60;;;;;;;;;;5083794;28;20571;-61
2020/12/14 07:22:14;;;;;;;1.43;1.33;;;;;;;;;;5098438;28;20175;-61
2020/12/14 07:24:41;;;;;;;2.57;1.27;;;;;;;;;;5100669;28;20647;-61
2020/12/14 07:27:09;;;;;;;3.00;1.43;;;;;;;;;;5080497;28;20172;-61
2020/12/14 07:29:35;;;;;;;6.37;1.40;;;;;;;;;;5103589;28;20172;-60
2020/12/14 07:32:05;;;;;;;4.83;1.70;;;;;;;;;;5090274;28;20192;-60
2020/12/14 07:34:31;;;;;;;2.87;1.50;;;;;;;;;;5099667;28;20273;-60
2020/12/14 07:36:57;;;;;;;3.03;1.70;;;;;;;;;;5105627;28;20287;-60
2020/12/14 07:39:23;;;;;;;2.87;1.80;;;;;;;;;;5108836;28;20649;-60
2020/12/14 07:41:49;;;;;;;7.67;1.90;;;;;;;;;;5090060;28;20163;-60
2020/12/14 07:44:15;;;;;;;1.77;1.63;;;;;;;;;;5085027;28;20176;-60
2020/12/14 07:46:41;;;;;;;3.03;1.70;;;;;;;;;;5100989;28;20179;-61
2020/12/14 07:49:12;;;;;;;2.37;1.70;;;;;;;;;;5097099;28;20203;-61
2020/12/14 07:51:40;;;;;;;2.00;1.60;;;;;;;;;;5094148;28;20183;-61
2020/12/14 07:54:08;;;;;;;2.83;1.87;;;;;;;;;;5110316;28;20174;-60
2020/12/14 07:56:44;;;;;;;2.10;1.70;;;;;;;;;;5106445;28;20211;-62
2020/12/14 07:59:17;;;;;;;2.63;1.77;;;;;;;;;;5109759;28;20189;-59
2020/12/14 08:01:43;;;;;;;2.10;1.30;;;;;;;;;;5097805;28;20168;-60
2020/12/14 08:04:09;;;;;;;3.27;1.70;;;;;;;;;;5106957;28;20591;-63
2020/12/14 08:06:38;;;;;;;3.67;1.63;;;;;;;;;;5102742;28;20278;-60
2020/12/14 08:09:04;;;;;;;3.07;1.70;;;;;;;;;;5108780;28;20539;-59
2020/12/14 08:11:30;;;;;;;2.07;1.87;;;;;;;;;;5096931;28;20176;-59
2020/12/14 08:13:56;;;;;;;2.20;1.53;;;;;;;;;;5105738;28;20187;-59
2020/12/14 08:16:22;;;;;;;3.37;1.57;;;;;;;;;;5105235;28;20244;-60
2020/12/14 08:18:49;;;;;;;2.17;1.80;;;;;;;;;;5131038;28;20171;-60
2020/12/14 08:21:22;;;;;;;2.77;1.50;;;;;;;;;;5125413;28;20647;-60
2020/12/14 08:23:48;;;;;;;1.90;1.50;;;;;;;;;;5110295;28;20629;-60
2020/12/14 08:26:14;;;;;;;4.23;1.70;;;;;;;;;;5108090;28;20206;-60
2020/12/14 08:28:42;;;;;;;3.23;1.77;;;;;;;;;;5102324;28;20236;-59
2020/12/14 08:31:08;;;;;;;1.97;1.30;;;;;;;;;;5109758;28;20187;-59
2020/12/14 08:33:48;;;;;;;2.70;1.80;;;;;;;;;;5109982;28;20241;-60
2020/12/14 08:36:14;;;;;;;4.50;1.60;;;;;;;;;;5110004;28;20712;-59
2020/12/14 08:38:40;;;;;;;1.47;1.33;;;;;;;;;;5114397;27;20180;-60
2020/12/14 08:41:07;;;;;;;1.77;1.37;;;;;;;;;;5133384;27;20162;-59
2020/12/14 08:43:34;;;;;;;2.10;1.33;;;;;;;;;;5115360;27;20701;-59
2020/12/14 08:46:16;;;;;;;1.83;1.40;;;;;;;;;;5133908;27;20230;-59
2020/12/14 08:48:56;;;;;;;1.43;1.20;;;;;;;;;;5099522;28;20220;-58
2020/12/14 08:51:30;;;;;;;1.60;1.50;;;;;;;;;;5113192;28;20178;-59
2020/12/14 08:54:10;;;;;;;2.00;1.53;;;;;;;;;;5114676;28;20186;-59
2020/12/14 08:56:36;;;;;;;1.63;1.47;;;;;;;;;;5113987;28;20214;-59
2020/12/14 08:59:02;;;;;;;3.20;1.60;;;;;;;;;;5114281;28;20614;-58
2020/12/14 09:01:29;;;;;;;1.37;1.17;;;;;;;;;;5095263;28;20175;-60
2020/12/14 09:03:56;;;;;;;1.40;1.30;;;;;;;;;;5114166;28;20252;-61
2020/12/14 09:06:23;;;;;;;2.23;1.30;;;;;;;;;;5111265;28;20182;-59
2020/12/14 09:08:57;;;;;;;4.07;1.40;;;;;;;;;;5093703;28;20175;-59
2020/12/14 09:11:28;;;;;;;4.90;1.50;;;;;;;;;;5094864;28;20536;-59
2020/12/14 09:13:54;;;;;;;2.47;1.50;;;;;;;;;;5108125;28;20176;-59
2020/12/14 09:16:20;;;;;;;2.20;1.30;;;;;;;;;;5093455;28;20231;-59
2020/12/14 09:18:46;;;;;;;1.30;1.20;;;;;;;;;;5111150;28;20710;-59
2020/12/14 09:21:12;;;;;;;3.17;1.57;;;;;;;;;;5109723;28;20594;-59
2020/12/14 09:23:38;;;;;;;1.93;1.20;;;;;;;;;;5075252;28;20217;-60
2020/12/14 09:26:05;;;;;;;2.07;1.80;;;;;;;;;;5094559;28;20211;-59
2020/12/14 09:28:34;;;;;;;1.70;1.43;;;;;;;;;;5093105;28;20697;-59
2020/12/14 09:31:00;;;;;;;2.50;1.70;;;;;;;;;;5091069;28;20609;-59
2020/12/14 09:33:26;;;;;;;2.77;1.50;;;;;;;;;;5086864;28;20252;-59
2020/12/14 09:35:52;;;;;;;2.67;1.40;;;;;;;;;;5111712;28;20224;-59
2020/12/14 09:38:18;;;;;;;1.83;1.20;;;;;;;;;;5108520;28;20262;-59
2020/12/14 09:40:44;;;;;;;3.70;1.63;;;;;;;;;;5112754;28;20542;-58
2020/12/14 09:43:11;;;;;;;2.27;1.47;;;;;;;;;;5122436;27;20220;-59
2020/12/14 09:45:37;;;;;;;3.47;2.10;;;;;;;;;;5112729;27;20186;-58
2020/12/14 09:48:03;;;;;;;3.00;1.70;;;;;;;;;;5103173;28;20175;-58
2020/12/14 09:50:29;;;;;;;2.40;1.77;;;;;;;;;;5091874;28;20268;-58
2020/12/14 09:52:55;;;;;;;4.93;1.23;;;;;;;;;;5110029;28;20214;-58
2020/12/14 09:55:20;;;;;;;2.33;1.70;;;;;;;;;;5112855;28;20195;-58
2020/12/14 09:57:46;;;;;;;2.93;1.37;;;;;;;;;;5123199;27;20182;-58
2020/12/14 10:00:12;;;;;;;2.43;1.40;;;;;;;;;;5132616;27;20528;-58
2020/12/14 10:02:38;;;;;;;1.70;1.57;;;;;;;;;;5127642;27;20246;-59
2020/12/14 10:05:04;;;;;;;3.37;1.60;;;;;;;;;;5110316;28;20272;-58
2020/12/14 10:07:30;;;;;;;3.17;1.90;;;;;;;;;;5078921;28;20191;-59
2020/12/14 10:09:56;;;;;;;2.47;1.70;;;;;;;;;;5091688;28;20176;-59
2020/12/14 10:12:26;;;;;;;3.70;1.53;;;;;;;;;;5091275;28;20203;-59
2020/12/14 10:14:54;;;;;;;2.97;1.53;;;;;;;;;;5091469;28;20172;-58
2020/12/14 10:17:20;;;;;;;3.53;2.20;;;;;;;;;;5115227;27;20177;-59
2020/12/14 10:19:46;;;;;;;2.90;1.70;;;;;;;;;;5132376;27;20174;-59
2020/12/14 10:22:12;;;;;;;2.07;1.50;;;;;;;;;;5118224;27;20182;-60
2020/12/14 10:24:38;;;;;;;2.50;1.83;;;;;;;;;;5093413;28;20535;-59
2020/12/14 10:27:05;;;;;;;3.47;1.87;;;;;;;;;;5111617;28;20174;-61
2020/12/14 10:29:31;;;;;;;3.30;2.03;;;;;;;;;;5111339;28;20258;-59
2020/12/14 10:31:57;;;;;;;6.23;2.10;;;;;;;;;;5111337;28;20278;-58
2020/12/14 10:34:23;;;;;;;3.00;1.63;;;;;;;;;;5093155;28;20178;-59
2020/12/14 10:36:49;;;;;;;2.77;1.67;;;;;;;;;;5102781;28;20657;-59
2020/12/14 10:39:15;;;;;;;4.00;1.77;;;;;;;;;;5072999;28;20229;-59
2020/12/14 10:41:41;;;;;;;2.50;1.90;;;;;;;;;;5092279;28;20186;-58
2020/12/14 10:44:07;;;;;;;2.57;1.73;;;;;;;;;;5111293;28;20175;-59
2020/12/14 10:46:34;;;;;;;1.87;1.60;;;;;;;;;;5111441;28;20167;-59
2020/12/14 10:49:00;;;;;;;2.67;2.13;;;;;;;;;;5111474;28;20171;-59
2020/12/14 10:51:26;;;;;;;3.70;2.10;;;;;;;;;;5107445;28;20274;-59
2020/12/14 10:53:52;;;;;;;3.93;1.80;;;;;;;;;;5092852;28;20182;-59
2020/12/14 10:56:18;;;;;;;2.40;2.00;;;;;;;;;;5090730;28;20199;-60
2020/12/14 10:58:44;;;;;;;4.20;1.87;;;;;;;;;;5090846;28;20172;-59
2020/12/14 11:01:10;;;;;;;2.87;1.90;;;;;;;;;;5090883;28;20619;-58
2020/12/14 11:03:36;;;;;;;3.23;1.50;;;;;;;;;;5092106;28;20306;-60
2020/12/14 11:06:02;;;;;;;3.40;1.93;;;;;;;;;;5074906;28;20298;-60
2020/12/14 11:08:28;;;;;;;2.27;2.07;;;;;;;;;;5110443;28;20169;-59
2020/12/14 11:10:54;;;;;;;3.33;2.07;;;;;;;;;;5120433;27;20213;-59
2020/12/14 11:13:20;;;;;;;4.37;1.93;;;;;;;;;;5107172;28;20205;-58
2020/12/14 11:15:46;;;;;;;2.90;1.80;;;;;;;;;;5090315;28;20249;-59
2020/12/14 11:18:12;;;;;;;3.90;1.93;;;;;;;;;;5103450;28;20186;-59
2020/12/14 11:20:38;;;;;;;2.43;1.97;;;;;;;;;;5108614;28;20167;-59
2020/12/14 11:23:05;;;;;;;3.33;2.20;;;;;;;;;;5102474;28;20170;-58
2020/12/14 11:25:31;;;;;;;4.60;2.23;;;;;;;;;;5074855;28;20286;-59
2020/12/14 11:27:57;;;;;;;6.83;2.40;;;;;;;;;;5090813;28;20179;-59
2020/12/14 11:30:23;;;;;;;1.80;1.60;;;;;;;;;;5102323;28;20205;-59
2020/12/14 11:32:49;;;;;;;3.40;2.20;;;;;;;;;;5107416;28;20179;-60
2020/12/14 11:35:15;;;;;;;2.77;2.00;;;;;;;;;;5108294;28;20219;-58
2020/12/14 11:37:41;;;;;;;2.93;2.30;;;;;;;;;;5107668;28;20546;-61
2020/12/14 11:40:07;;;;;;;2.53;1.97;;;;;;;;;;5118364;28;20167;-58
2020/12/14 11:42:33;;;;;;;2.57;1.93;;;;;;;;;;5114623;28;20171;-58
2020/12/14 11:44:59;;;;;;;4.63;2.50;;;;;;;;;;5090568;28;20201;-59
2020/12/14 11:47:25;;;;;;;4.47;2.17;;;;;;;;;;5110130;28;20183;-58
2020/12/14 11:49:51;;;;;;;2.90;2.13;;;;;;;;;;5102816;28;20650;-59
2020/12/14 11:52:17;;;;;;;2.93;2.30;;;;;;;;;;5090217;28;20210;-58
2020/12/14 11:54:43;;;;;;;3.50;2.37;;;;;;;;;;5095700;28;20170;-62
2020/12/14 11:57:09;;;;;;;2.67;2.13;;;;;;;;;;5105149;28;20185;-59
2020/12/14 11:59:35;;;;;;;2.43;2.03;;;;;;;;;;5116291;28;20179;-59
2020/12/14 12:02:01;;;;;;;3.67;2.60;;;;;;;;;;5120626;28;20167;-59
2020/12/14 12:04:27;;;;;;;2.37;1.97;;;;;;;;;;5113849;28;20214;-59
2020/12/14 12:06:53;;;;;;;3.90;2.37;;;;;;;;;;5108310;28;20190;-59
2020/12/14 12:09:19;;;;;;;2.90;2.20;;;;;;;;;;5110600;28;20199;-59
2020/12/14 12:11:45;;;;;;;2.33;1.93;;;;;;;;;;5113551;28;20650;-59
2020/12/14 12:14:11;;;;;;;5.13;2.77;;;;;;;;;;5095981;28;20316;-59
2020/12/14 12:16:37;;;;;;;5.93;1.90;;;;;;;;;;5114691;28;20602;-59
2020/12/14 12:19:03;;;;;;;2.27;2.07;;;;;;;;;;5112993;28;20167;-59
2020/12/14 12:21:29;;;;;;;3.33;2.20;;;;;;;;;;5111278;28;20175;-61
2020/12/14 12:23:55;;;;;;;7.70;2.40;;;;;;;;;;5113470;28;20220;-59
2020/12/14 12:26:21;;;;;;;3.00;2.33;;;;;;;;;;5107516;28;20183;-58
2020/12/14 12:28:47;;;;;;;3.77;2.33;;;;;;;;;;5093744;28;20182;-59
2020/12/14 12:31:13;;;;;;;4.27;2.40;;;;;;;;;;5095592;28;20551;-59
2020/12/14 12:33:40;;;;;;;2.70;2.20;;;;;;;;;;5117840;27;20656;-60
2020/12/14 12:36:06;;;;;;;3.30;2.33;;;;;;;;;;5133987;27;20202;-59
2020/12/14 12:38:32;;;;;;;3.63;1.97;;;;;;;;;;5124328;27;20669;-59
2020/12/14 12:40:58;;;;;;;2.50;2.00;;;;;;;;;;5077196;28;20176;-60
2020/12/14 12:43:24;;;;;;;3.03;2.10;;;;;;;;;;5105663;28;20179;-59
2020/12/14 12:45:50;;;;;;;2.67;2.33;;;;;;;;;;5096336;28;20538;-60
2020/12/14 12:48:17;;;;;;;3.87;1.93;;;;;;;;;;5102104;28;20594;-59
2020/12/14 12:50:52;;;;;;;2.20;2.00;;;;;;;;;;5094739;28;20266;-59
2020/12/14 12:53:20;;;;;;;4.60;2.00;;;;;;;;;;5105530;28;20171;-59
2020/12/14 12:55:46;;;;;;;2.27;2.03;;;;;;;;;;5112973;28;20195;-59
2020/12/14 12:58:12;;;;;;;4.23;2.03;;;;;;;;;;5098493;28;20228;-59
2020/12/14 13:00:38;;;;;;;2.60;2.20;;;;;;;;;;5108003;27;20197;-59
2020/12/14 13:03:04;;;;;;;2.53;1.93;;;;;;;;;;5111316;27;20187;-59
2020/12/14 13:05:30;;;;;;;4.13;2.33;;;;;;;;;;5126640;27;20219;-60
2020/12/14 13:07:56;;;;;;;3.63;2.07;;;;;;;;;;5097101;28;20222;-59
2020/12/14 13:10:22;;;;;;;5.80;2.57;;;;;;;;;;5092435;28;20258;-59
2020/12/14 13:12:48;;;;;;;3.23;2.17;;;;;;;;;;5073064;28;20569;-60
2020/12/14 13:15:14;;;;;;;3.57;2.53;;;;;;;;;;5107400;28;20253;-60
2020/12/14 13:17:40;;;;;;;3.67;2.63;;;;;;;;;;5113170;28;20199;-61
2020/12/14 13:20:06;;;;;;;3.20;2.10;;;;;;;;;;5106472;28;20176;-60
2020/12/14 13:22:32;;;;;;;3.30;2.13;;;;;;;;;;5096343;28;20175;-60
2020/12/14 13:24:58;;;;;;;2.90;2.33;;;;;;;;;;5111269;28;20653;-59
2020/12/14 13:27:24;;;;;;;3.23;2.27;;;;;;;;;;5112589;28;20167;-59
2020/12/14 13:29:50;;;;;;;3.23;2.10;;;;;;;;;;5105273;27;20172;-62
2020/12/14 13:32:16;;;;;;;4.10;2.00;;;;;;;;;;5074174;28;20630;-59
2020/12/14 13:34:42;;;;;;;3.00;1.87;;;;;;;;;;5112374;28;20287;-59
2020/12/14 13:37:08;;;;;;;3.97;2.30;;;;;;;;;;5112669;28;20218;-59
2020/12/14 13:39:34;;;;;;;2.57;2.00;;;;;;;;;;5090911;28;20179;-60
2020/12/14 13:42:00;;;;;;;2.20;2.00;;;;;;;;;;5108484;28;20183;-61
2020/12/14 13:44:26;;;;;;;2.37;2.13;;;;;;;;;;5099358;28;20175;-60
2020/12/14 13:46:52;;;;;;;2.20;1.93;;;;;;;;;;5112445;28;20178;-59
2020/12/14 13:49:18;;;;;;;4.90;1.87;;;;;;;;;;5112108;28;20167;-59
2020/12/14 13:51:44;;;;;;;2.23;1.97;;;;;;;;;;5112017;28;20644;-60
2020/12/14 13:54:10;;;;;;;3.37;2.27;;;;;;;;;;5112467;28;20585;-60
2020/12/14 13:56:36;;;;;;;2.80;2.40;;;;;;;;;;5112205;28;20194;-59
2020/12/14 13:59:02;;;;;;;3.73;2.00;;;;;;;;;;5105951;28;20226;-59
2020/12/14 14:01:28;;;;;;;2.27;1.60;;;;;;;;;;5074588;28;20176;-59
2020/12/14 14:03:54;;;;;;;2.80;2.00;;;;;;;;;;5091610;28;20249;-59
2020/12/14 14:06:20;;;;;;;2.10;1.90;;;;;;;;;;5091666;28;20254;-61
2020/12/14 14:08:47;;;;;;;4.33;2.07;;;;;;;;;;5076212;28;20588;-59
2020/12/14 14:11:13;;;;;;;3.23;2.10;;;;;;;;;;5112454;28;20202;-59
2020/12/14 14:13:39;;;;;;;1.90;1.73;;;;;;;;;;5106413;28;20186;-59
2020/12/14 14:16:05;;;;;;;2.43;1.63;;;;;;;;;;5074035;28;20683;-59
2020/12/14 14:18:31;;;;;;;2.57;1.90;;;;;;;;;;5094020;28;20176;-60
2020/12/14 14:20:57;;;;;;;2.43;2.10;;;;;;;;;;5082420;28;20176;-59
2020/12/14 14:23:23;;;;;;;4.23;2.10;;;;;;;;;;5108070;28;20250;-59
2020/12/14 14:25:49;;;;;;;2.20;2.00;;;;;;;;;;5110177;28;20608;-59
2020/12/14 14:28:16;;;;;;;3.77;2.20;;;;;;;;;;5099399;27;20639;-59
2020/12/14 14:30:41;;;;;;;3.40;2.00;;;;;;;;;;5100464;28;20203;-60
2020/12/14 14:33:08;;;;;;;3.77;2.10;;;;;;;;;;5105056;28;20187;-59
2020/12/14 14:35:34;;;;;;;3.77;1.93;;;;;;;;;;5094118;28;20202;-59
2020/12/14 14:38:02;;;;;;;3.80;2.07;;;;;;;;;;5085234;28;20175;-60
2020/12/14 14:40:28;;;;;;;3.17;1.97;;;;;;;;;;5108795;28;20198;-59
2020/12/14 14:42:56;;;;;;;3.23;1.97;;;;;;;;;;5094968;28;20197;-59
2020/12/14 14:45:22;;;;;;;2.67;1.70;;;;;;;;;;5103211;28;20179;-59